sensor_id;sensor_type;location;lat;lon;timestamp;P1;durP1;ratioP1;P2;durP2;ratioP2
60306;SDS011;46155;52.364;6.580;2023-06-22T03:01:28;62.67;;;48.43;;
60306;SDS011;46155;52.364;6.580;2023-06-22T03:03:56;57.23;;;46.63;;
60306;SDS011;46155;52.364;6.580;2023-06-22T03:06:22;64.07;;;48.73;;
60306;SDS011;46155;52.364;6.580;2023-06-22T03:08:51;62.33;;;47.63;;
60306;SDS011;46155;52.364;6.580;2023-06-22T03:11:16;66.00;;;50.17;;
60306;SDS011;46155;52.364;6.580;2023-06-22T03:13:42;62.77;;;50.83;;
60306;SDS011;46155;52.364;6.580;2023-06-22T03:16:08;69.90;;;49.23;;
60306;SDS011;46155;52.364;6.580;2023-06-22T03:18:33;63.80;;;48.97;;
60306;SDS011;46155;52.364;6.580;2023-06-22T03:20:59;66.53;;;49.27;;
60306;SDS011;46155;52.364;6.580;2023-06-22T03:23:25;66.53;;;49.60;;
60306;SDS011;46155;52.364;6.580;2023-06-22T03:25:50;73.83;;;50.80;;
60306;SDS011;46155;52.364;6.580;2023-06-22T03:28:15;64.87;;;50.47;;
60306;SDS011;46155;52.364;6.580;2023-06-22T03:30:41;68.13;;;52.43;;
60306;SDS011;46155;52.364;6.580;2023-06-22T03:33:06;70.33;;;50.70;;
60306;SDS011;46155;52.364;6.580;2023-06-22T03:35:31;72.63;;;52.23;;
60306;SDS011;46155;52.364;6.580;2023-06-22T03:37:57;72.10;;;52.13;;
60306;SDS011;46155;52.364;6.580;2023-06-22T03:40:22;81.70;;;54.70;;
60306;SDS011;46155;52.364;6.580;2023-06-22T03:42:47;75.03;;;55.47;;
60306;SDS011;46155;52.364;6.580;2023-06-22T03:45:13;76.23;;;52.00;;
60306;SDS011;46155;52.364;6.580;2023-06-22T03:47:38;79.73;;;54.70;;
60306;SDS011;46155;52.364;6.580;2023-06-22T03:50:04;75.40;;;53.93;;
60306;SDS011;46155;52.364;6.580;2023-06-22T03:52:30;72.53;;;53.87;;
60306;SDS011;46155;52.364;6.580;2023-06-22T03:54:56;84.37;;;57.00;;
60306;SDS011;46155;52.364;6.580;2023-06-22T03:57:21;70.60;;;53.37;;
60306;SDS011;46155;52.364;6.580;2023-06-22T03:59:47;73.57;;;53.73;;
60306;SDS011;46155;52.364;6.580;2023-06-22T04:02:12;76.93;;;54.27;;
60306;SDS011;46155;52.364;6.580;2023-06-22T04:04:37;72.03;;;53.60;;
60306;SDS011;46155;52.364;6.580;2023-06-22T04:07:04;73.33;;;52.53;;
60306;SDS011;46155;52.364;6.580;2023-06-22T04:09:29;72.00;;;52.87;;
60306;SDS011;46155;52.364;6.580;2023-06-22T04:11:55;74.30;;;53.30;;
60306;SDS011;46155;52.364;6.580;2023-06-22T04:14:20;69.50;;;52.93;;
60306;SDS011;46155;52.364;6.580;2023-06-22T04:16:45;75.03;;;53.87;;
60306;SDS011;46155;52.364;6.580;2023-06-22T04:19:11;80.07;;;55.67;;
60306;SDS011;46155;52.364;6.580;2023-06-22T04:21:41;75.10;;;53.70;;
60306;SDS011;46155;52.364;6.580;2023-06-22T04:24:06;74.53;;;51.07;;
60306;SDS011;46155;52.364;6.580;2023-06-22T04:26:31;69.70;;;49.27;;
60306;SDS011;46155;52.364;6.580;2023-06-22T04:29:01;77.77;;;52.23;;
60306;SDS011;46155;52.364;6.580;2023-06-22T04:31:30;65.80;;;48.13;;
60306;SDS011;46155;52.364;6.580;2023-06-22T04:33:57;67.93;;;49.20;;
60306;SDS011;46155;52.364;6.580;2023-06-22T04:36:23;67.00;;;47.53;;
60306;SDS011;46155;52.364;6.580;2023-06-22T04:38:48;63.10;;;47.23;;
60306;SDS011;46155;52.364;6.580;2023-06-22T04:41:17;64.87;;;47.37;;
60306;SDS011;46155;52.364;6.580;2023-06-22T04:43:48;65.10;;;48.50;;
60306;SDS011;46155;52.364;6.580;2023-06-22T04:46:18;68.07;;;51.43;;
60306;SDS011;46155;52.364;6.580;2023-06-22T04:48:44;67.10;;;50.07;;
60306;SDS011;46155;52.364;6.580;2023-06-22T04:51:09;67.33;;;50.93;;
60306;SDS011;46155;52.364;6.580;2023-06-22T04:53:35;67.90;;;48.90;;
60306;SDS011;46155;52.364;6.580;2023-06-22T04:56:01;67.47;;;51.40;;
60306;SDS011;46155;52.364;6.580;2023-06-22T04:58:29;69.30;;;46.93;;
60306;SDS011;46155;52.364;6.580;2023-06-22T05:00:57;64.03;;;46.00;;
60306;SDS011;46155;52.364;6.580;2023-06-22T05:03:22;66.87;;;45.53;;
60306;SDS011;46155;52.364;6.580;2023-06-22T05:05:50;69.17;;;46.97;;
60306;SDS011;46155;52.364;6.580;2023-06-22T05:08:17;65.83;;;44.67;;
60306;SDS011;46155;52.364;6.580;2023-06-22T05:10:42;65.73;;;44.47;;
60306;SDS011;46155;52.364;6.580;2023-06-22T05:13:08;54.97;;;41.90;;
60306;SDS011;46155;52.364;6.580;2023-06-22T05:15:33;60.90;;;42.43;;
60306;SDS011;46155;52.364;6.580;2023-06-22T05:18:04;54.87;;;41.63;;
60306;SDS011;46155;52.364;6.580;2023-06-22T05:20:30;58.70;;;40.30;;
60306;SDS011;46155;52.364;6.580;2023-06-22T05:22:55;46.80;;;35.57;;
60306;SDS011;46155;52.364;6.580;2023-06-22T05:25:21;45.57;;;36.30;;
60306;SDS011;46155;52.364;6.580;2023-06-22T05:27:46;50.80;;;36.13;;
60306;SDS011;46155;52.364;6.580;2023-06-22T05:30:12;49.93;;;33.90;;
60306;SDS011;46155;52.364;6.580;2023-06-22T05:32:37;42.30;;;33.83;;
60306;SDS011;46155;52.364;6.580;2023-06-22T05:35:03;48.70;;;33.23;;
60306;SDS011;46155;52.364;6.580;2023-06-22T05:37:29;47.93;;;35.03;;
60306;SDS011;46155;52.364;6.580;2023-06-22T05:39:54;45.43;;;34.40;;
60306;SDS011;46155;52.364;6.580;2023-06-22T05:42:20;42.23;;;29.53;;
60306;SDS011;46155;52.364;6.580;2023-06-22T05:44:46;40.83;;;30.20;;
60306;SDS011;46155;52.364;6.580;2023-06-22T05:47:12;46.63;;;31.47;;
60306;SDS011;46155;52.364;6.580;2023-06-22T05:49:37;38.47;;;29.47;;
60306;SDS011;46155;52.364;6.580;2023-06-22T05:52:03;39.30;;;29.40;;
60306;SDS011;46155;52.364;6.580;2023-06-22T05:54:28;38.10;;;30.07;;
60306;SDS011;46155;52.364;6.580;2023-06-22T05:56:54;36.93;;;28.53;;
60306;SDS011;46155;52.364;6.580;2023-06-22T05:59:19;39.57;;;28.03;;
60306;SDS011;46155;52.364;6.580;2023-06-22T06:01:44;34.67;;;27.07;;
60306;SDS011;46155;52.364;6.580;2023-06-22T06:04:15;33.60;;;27.53;;
60306;SDS011;46155;52.364;6.580;2023-06-22T06:06:41;34.20;;;25.97;;
60306;SDS011;46155;52.364;6.580;2023-06-22T06:09:06;33.10;;;25.87;;
60306;SDS011;46155;52.364;6.580;2023-06-22T06:11:32;34.93;;;25.97;;
60306;SDS011;46155;52.364;6.580;2023-06-22T06:13:58;34.43;;;24.43;;
60306;SDS011;46155;52.364;6.580;2023-06-22T06:16:23;29.03;;;22.37;;
60306;SDS011;46155;52.364;6.580;2023-06-22T06:18:49;31.97;;;23.03;;
60306;SDS011;46155;52.364;6.580;2023-06-22T06:21:15;25.60;;;21.57;;
60306;SDS011;46155;52.364;6.580;2023-06-22T06:23:41;26.63;;;21.53;;
60306;SDS011;46155;52.364;6.580;2023-06-22T06:26:07;24.07;;;20.37;;
60306;SDS011;46155;52.364;6.580;2023-06-22T06:28:32;28.23;;;20.40;;
60306;SDS011;46155;52.364;6.580;2023-06-22T06:30:58;25.30;;;20.70;;
60306;SDS011;46155;52.364;6.580;2023-06-22T06:33:24;27.83;;;20.13;;
60306;SDS011;46155;52.364;6.580;2023-06-22T06:35:49;24.33;;;18.13;;
60306;SDS011;46155;52.364;6.580;2023-06-22T06:38:15;23.13;;;18.53;;
60306;SDS011;46155;52.364;6.580;2023-06-22T06:40:40;23.17;;;17.40;;
60306;SDS011;46155;52.364;6.580;2023-06-22T06:43:06;22.73;;;17.00;;
60306;SDS011;46155;52.364;6.580;2023-06-22T06:45:31;20.67;;;15.73;;
60306;SDS011;46155;52.364;6.580;2023-06-22T06:47:59;20.40;;;15.57;;
60306;SDS011;46155;52.364;6.580;2023-06-22T06:50:25;15.90;;;14.17;;
60306;SDS011;46155;52.364;6.580;2023-06-22T06:52:50;17.50;;;15.20;;
60306;SDS011;46155;52.364;6.580;2023-06-22T06:55:16;16.80;;;14.57;;
60306;SDS011;46155;52.364;6.580;2023-06-22T06:57:42;17.33;;;13.80;;
60306;SDS011;46155;52.364;6.580;2023-06-22T07:00:11;15.60;;;13.93;;
60306;SDS011;46155;52.364;6.580;2023-06-22T07:02:39;17.07;;;13.73;;
60306;SDS011;46155;52.364;6.580;2023-06-22T07:05:06;24.00;;;13.87;;
60306;SDS011;46155;52.364;6.580;2023-06-22T07:07:32;15.13;;;13.47;;
60306;SDS011;46155;52.364;6.580;2023-06-22T07:09:57;14.93;;;13.37;;
60306;SDS011;46155;52.364;6.580;2023-06-22T07:12:22;17.07;;;14.17;;
60306;SDS011;46155;52.364;6.580;2023-06-22T07:14:48;15.83;;;13.90;;
60306;SDS011;46155;52.364;6.580;2023-06-22T07:17:13;15.97;;;13.17;;
60306;SDS011;46155;52.364;6.580;2023-06-22T07:19:38;13.10;;;11.83;;
60306;SDS011;46155;52.364;6.580;2023-06-22T07:22:05;14.70;;;12.47;;
60306;SDS011;46155;52.364;6.580;2023-06-22T07:24:30;12.50;;;11.30;;
60306;SDS011;46155;52.364;6.580;2023-06-22T07:26:56;12.23;;;11.00;;
60306;SDS011;46155;52.364;6.580;2023-06-22T07:29:24;15.67;;;12.53;;
60306;SDS011;46155;52.364;6.580;2023-06-22T07:31:49;14.67;;;12.37;;
60306;SDS011;46155;52.364;6.580;2023-06-22T07:34:16;14.57;;;11.90;;
60306;SDS011;46155;52.364;6.580;2023-06-22T07:36:41;14.33;;;12.77;;
60306;SDS011;46155;52.364;6.580;2023-06-22T07:39:07;13.83;;;11.93;;
60306;SDS011;46155;52.364;6.580;2023-06-22T07:41:32;20.23;;;11.90;;
60306;SDS011;46155;52.364;6.580;2023-06-22T07:43:58;14.70;;;12.47;;
60306;SDS011;46155;52.364;6.580;2023-06-22T07:46:23;13.67;;;11.13;;
60306;SDS011;46155;52.364;6.580;2023-06-22T07:48:49;17.47;;;13.00;;
60306;SDS011;46155;52.364;6.580;2023-06-22T07:51:14;21.90;;;13.50;;
60306;SDS011;46155;52.364;6.580;2023-06-22T07:53:43;16.63;;;13.43;;
60306;SDS011;46155;52.364;6.580;2023-06-22T07:56:12;14.87;;;13.27;;
60306;SDS011;46155;52.364;6.580;2023-06-22T07:58:37;19.07;;;12.80;;
60306;SDS011;46155;52.364;6.580;2023-06-22T08:01:03;14.37;;;11.90;;
60306;SDS011;46155;52.364;6.580;2023-06-22T08:03:28;13.90;;;12.03;;
60306;SDS011;46155;52.364;6.580;2023-06-22T08:05:54;14.57;;;12.30;;
60306;SDS011;46155;52.364;6.580;2023-06-22T08:08:19;13.93;;;12.03;;
60306;SDS011;46155;52.364;6.580;2023-06-22T08:10:45;15.43;;;12.63;;
60306;SDS011;46155;52.364;6.580;2023-06-22T08:13:10;13.23;;;11.83;;
60306;SDS011;46155;52.364;6.580;2023-06-22T08:15:36;14.03;;;12.57;;
60306;SDS011;46155;52.364;6.580;2023-06-22T08:18:01;18.07;;;12.23;;
60306;SDS011;46155;52.364;6.580;2023-06-22T08:20:26;14.87;;;13.23;;
60306;SDS011;46155;52.364;6.580;2023-06-22T08:22:53;15.77;;;12.33;;
60306;SDS011;46155;52.364;6.580;2023-06-22T08:25:19;13.50;;;12.07;;
60306;SDS011;46155;52.364;6.580;2023-06-22T08:27:46;13.83;;;12.43;;
60306;SDS011;46155;52.364;6.580;2023-06-22T08:30:13;13.70;;;12.00;;
60306;SDS011;46155;52.364;6.580;2023-06-22T08:32:39;13.80;;;12.33;;
60306;SDS011;46155;52.364;6.580;2023-06-22T08:35:04;12.97;;;11.67;;
60306;SDS011;46155;52.364;6.580;2023-06-22T08:37:33;16.47;;;12.57;;
60306;SDS011;46155;52.364;6.580;2023-06-22T08:40:00;13.63;;;12.10;;
60306;SDS011;46155;52.364;6.580;2023-06-22T08:42:31;14.73;;;12.83;;
60306;SDS011;46155;52.364;6.580;2023-06-22T08:44:56;17.00;;;11.93;;
60306;SDS011;46155;52.364;6.580;2023-06-22T08:47:21;14.33;;;12.90;;
60306;SDS011;46155;52.364;6.580;2023-06-22T08:49:48;17.53;;;12.60;;
60306;SDS011;46155;52.364;6.580;2023-06-22T08:52:13;14.33;;;11.67;;
60306;SDS011;46155;52.364;6.580;2023-06-22T08:54:39;13.67;;;12.27;;
60306;SDS011;46155;52.364;6.580;2023-06-22T08:57:04;12.93;;;11.63;;
60306;SDS011;46155;52.364;6.580;2023-06-22T08:59:30;14.73;;;11.63;;
60306;SDS011;46155;52.364;6.580;2023-06-22T09:01:55;14.43;;;11.93;;
60306;SDS011;46155;52.364;6.580;2023-06-22T09:04:21;14.93;;;13.40;;
60306;SDS011;46155;52.364;6.580;2023-06-22T09:06:47;13.17;;;11.30;;
60306;SDS011;46155;52.364;6.580;2023-06-22T09:09:13;15.63;;;12.80;;
60306;SDS011;46155;52.364;6.580;2023-06-22T09:11:39;13.23;;;11.83;;
60306;SDS011;46155;52.364;6.580;2023-06-22T09:14:05;16.40;;;12.60;;
60306;SDS011;46155;52.364;6.580;2023-06-22T09:16:30;18.27;;;13.13;;
60306;SDS011;46155;52.364;6.580;2023-06-22T09:18:55;13.97;;;12.47;;
60306;SDS011;46155;52.364;6.580;2023-06-22T09:21:21;17.27;;;13.10;;
60306;SDS011;46155;52.364;6.580;2023-06-22T09:23:46;16.07;;;13.77;;
60306;SDS011;46155;52.364;6.580;2023-06-22T09:26:16;19.07;;;12.30;;
60306;SDS011;46155;52.364;6.580;2023-06-22T09:28:41;17.47;;;12.83;;
60306;SDS011;46155;52.364;6.580;2023-06-22T09:31:06;16.23;;;13.20;;
60306;SDS011;46155;52.364;6.580;2023-06-22T09:33:32;13.90;;;12.40;;
60306;SDS011;46155;52.364;6.580;2023-06-22T09:35:57;18.23;;;13.90;;
60306;SDS011;46155;52.364;6.580;2023-06-22T09:38:23;13.83;;;12.47;;
60306;SDS011;46155;52.364;6.580;2023-06-22T09:40:48;13.93;;;12.40;;
60306;SDS011;46155;52.364;6.580;2023-06-22T09:43:13;15.67;;;13.00;;
60306;SDS011;46155;52.364;6.580;2023-06-22T09:45:39;14.23;;;11.97;;
60306;SDS011;46155;52.364;6.580;2023-06-22T09:48:04;15.53;;;12.03;;
60306;SDS011;46155;52.364;6.580;2023-06-22T09:50:30;13.90;;;11.80;;
60306;SDS011;46155;52.364;6.580;2023-06-22T09:52:55;13.90;;;12.03;;
60306;SDS011;46155;52.364;6.580;2023-06-22T09:55:21;12.63;;;11.30;;
60306;SDS011;46155;52.364;6.580;2023-06-22T09:57:47;12.47;;;10.57;;
60306;SDS011;46155;52.364;6.580;2023-06-22T10:00:13;15.07;;;11.50;;
60306;SDS011;46155;52.364;6.580;2023-06-22T10:02:41;11.83;;;10.33;;
60306;SDS011;46155;52.364;6.580;2023-06-22T10:05:06;13.63;;;12.23;;
60306;SDS011;46155;52.364;6.580;2023-06-22T10:07:32;16.67;;;13.23;;
60306;SDS011;46155;52.364;6.580;2023-06-22T10:09:58;15.50;;;13.60;;
60306;SDS011;46155;52.364;6.580;2023-06-22T10:12:23;17.73;;;12.67;;
60306;SDS011;46155;52.364;6.580;2023-06-22T10:14:48;14.83;;;11.43;;
60306;SDS011;46155;52.364;6.580;2023-06-22T10:17:14;14.50;;;12.33;;
60306;SDS011;46155;52.364;6.580;2023-06-22T10:19:39;13.00;;;11.70;;
60306;SDS011;46155;52.364;6.580;2023-06-22T10:22:06;17.17;;;12.47;;
60306;SDS011;46155;52.364;6.580;2023-06-22T10:24:32;14.83;;;13.17;;
60306;SDS011;46155;52.364;6.580;2023-06-22T10:26:57;18.07;;;13.77;;
60306;SDS011;46155;52.364;6.580;2023-06-22T10:29:23;14.23;;;12.53;;
60306;SDS011;46155;52.364;6.580;2023-06-22T10:31:48;14.90;;;12.57;;
60306;SDS011;46155;52.364;6.580;2023-06-22T10:34:13;16.67;;;12.57;;
60306;SDS011;46155;52.364;6.580;2023-06-22T10:36:39;13.63;;;11.67;;
60306;SDS011;46155;52.364;6.580;2023-06-22T10:39:04;12.47;;;11.27;;
60306;SDS011;46155;52.364;6.580;2023-06-22T10:41:30;16.53;;;13.33;;
60306;SDS011;46155;52.364;6.580;2023-06-22T10:43:56;19.70;;;13.33;;
60306;SDS011;46155;52.364;6.580;2023-06-22T10:46:23;17.30;;;13.43;;
60306;SDS011;46155;52.364;6.580;2023-06-22T10:48:49;15.57;;;13.30;;
60306;SDS011;46155;52.364;6.580;2023-06-22T10:51:15;13.07;;;11.30;;
60306;SDS011;46155;52.364;6.580;2023-06-22T10:53:40;13.97;;;11.47;;
60306;SDS011;46155;52.364;6.580;2023-06-22T10:56:06;14.73;;;11.73;;
60306;SDS011;46155;52.364;6.580;2023-06-22T10:58:31;16.27;;;13.53;;
60306;SDS011;46155;52.364;6.580;2023-06-22T11:00:56;16.47;;;13.43;;
60306;SDS011;46155;52.364;6.580;2023-06-22T11:03:24;14.13;;;12.00;;
60306;SDS011;46155;52.364;6.580;2023-06-22T11:05:49;17.57;;;13.20;;
60306;SDS011;46155;52.364;6.580;2023-06-22T11:08:14;14.10;;;11.93;;
60306;SDS011;46155;52.364;6.580;2023-06-22T11:10:40;17.07;;;13.03;;
60306;SDS011;46155;52.364;6.580;2023-06-22T11:13:05;13.97;;;11.47;;
60306;SDS011;46155;52.364;6.580;2023-06-22T11:15:34;15.47;;;12.57;;
60306;SDS011;46155;52.364;6.580;2023-06-22T11:18:00;19.67;;;13.10;;
60306;SDS011;46155;52.364;6.580;2023-06-22T11:20:25;15.20;;;13.00;;
60306;SDS011;46155;52.364;6.580;2023-06-22T11:22:50;14.83;;;13.43;;
60306;SDS011;46155;52.364;6.580;2023-06-22T11:25:15;15.63;;;12.67;;
60306;SDS011;46155;52.364;6.580;2023-06-22T11:27:41;20.87;;;13.10;;
60306;SDS011;46155;52.364;6.580;2023-06-22T11:30:06;14.40;;;12.90;;
60306;SDS011;46155;52.364;6.580;2023-06-22T11:32:33;22.13;;;13.63;;
60306;SDS011;46155;52.364;6.580;2023-06-22T11:34:59;15.53;;;13.27;;
60306;SDS011;46155;52.364;6.580;2023-06-22T11:37:24;14.43;;;12.90;;
60306;SDS011;46155;52.364;6.580;2023-06-22T11:39:49;15.53;;;13.73;;
60306;SDS011;46155;52.364;6.580;2023-06-22T11:42:15;16.93;;;12.43;;
60306;SDS011;46155;52.364;6.580;2023-06-22T11:44:41;14.90;;;12.23;;
60306;SDS011;46155;52.364;6.580;2023-06-22T11:47:07;17.77;;;12.20;;
60306;SDS011;46155;52.364;6.580;2023-06-22T11:49:32;19.10;;;11.93;;
60306;SDS011;46155;52.364;6.580;2023-06-22T11:51:58;18.73;;;12.53;;
60306;SDS011;46155;52.364;6.580;2023-06-22T11:54:23;15.83;;;11.23;;
60306;SDS011;46155;52.364;6.580;2023-06-22T11:56:48;13.00;;;11.60;;
60306;SDS011;46155;52.364;6.580;2023-06-22T11:59:14;14.53;;;12.60;;
60306;SDS011;46155;52.364;6.580;2023-06-22T12:01:39;15.53;;;12.17;;
60306;SDS011;46155;52.364;6.580;2023-06-22T12:04:04;12.80;;;11.00;;
60306;SDS011;46155;52.364;6.580;2023-06-22T12:06:31;13.00;;;11.60;;
60306;SDS011;46155;52.364;6.580;2023-06-22T12:08:57;12.10;;;10.83;;
60306;SDS011;46155;52.364;6.580;2023-06-22T12:11:23;13.70;;;10.47;;
60306;SDS011;46155;52.364;6.580;2023-06-22T12:13:48;19.20;;;12.07;;
60306;SDS011;46155;52.364;6.580;2023-06-22T12:16:13;13.70;;;11.80;;
60306;SDS011;46155;52.364;6.580;2023-06-22T12:18:39;12.40;;;11.03;;
60306;SDS011;46155;52.364;6.580;2023-06-22T12:21:04;13.60;;;10.77;;
60306;SDS011;46155;52.364;6.580;2023-06-22T12:23:29;10.47;;;9.47;;
60306;SDS011;46155;52.364;6.580;2023-06-22T12:25:55;11.43;;;10.23;;
60306;SDS011;46155;52.364;6.580;2023-06-22T12:28:20;12.30;;;10.47;;
60306;SDS011;46155;52.364;6.580;2023-06-22T12:30:45;16.17;;;11.73;;
60306;SDS011;46155;52.364;6.580;2023-06-22T12:33:11;12.27;;;11.07;;
60306;SDS011;46155;52.364;6.580;2023-06-22T12:35:36;12.50;;;11.10;;
60306;SDS011;46155;52.364;6.580;2023-06-22T12:38:01;12.60;;;11.30;;
60306;SDS011;46155;52.364;6.580;2023-06-22T12:40:28;13.17;;;11.77;;
60306;SDS011;46155;52.364;6.580;2023-06-22T12:42:53;12.37;;;11.13;;
60306;SDS011;46155;52.364;6.580;2023-06-22T12:45:18;12.50;;;11.30;;
60306;SDS011;46155;52.364;6.580;2023-06-22T12:47:46;12.70;;;11.20;;
60306;SDS011;46155;52.364;6.580;2023-06-22T12:50:11;12.20;;;10.53;;
60306;SDS011;46155;52.364;6.580;2023-06-22T12:52:37;12.87;;;11.43;;
60306;SDS011;46155;52.364;6.580;2023-06-22T12:55:06;14.87;;;11.97;;
60306;SDS011;46155;52.364;6.580;2023-06-22T12:57:31;17.50;;;12.50;;
60306;SDS011;46155;52.364;6.580;2023-06-22T12:59:57;15.50;;;12.33;;
60306;SDS011;46155;52.364;6.580;2023-06-22T13:02:23;12.57;;;11.20;;
60306;SDS011;46155;52.364;6.580;2023-06-22T13:04:49;16.23;;;11.63;;
60306;SDS011;46155;52.364;6.580;2023-06-22T13:07:14;14.40;;;12.60;;
60306;SDS011;46155;52.364;6.580;2023-06-22T13:09:39;15.33;;;13.63;;
60306;SDS011;46155;52.364;6.580;2023-06-22T13:12:05;14.60;;;13.10;;
60306;SDS011;46155;52.364;6.580;2023-06-22T13:14:30;14.43;;;12.83;;
60306;SDS011;46155;52.364;6.580;2023-06-22T13:16:56;14.23;;;12.70;;
60306;SDS011;46155;52.364;6.580;2023-06-22T13:19:21;17.37;;;15.03;;
60306;SDS011;46155;52.364;6.580;2023-06-22T13:21:46;19.97;;;15.43;;
60306;SDS011;46155;52.364;6.580;2023-06-22T13:24:12;17.00;;;15.20;;
60306;SDS011;46155;52.364;6.580;2023-06-22T13:26:37;19.20;;;17.20;;
60306;SDS011;46155;52.364;6.580;2023-06-22T13:29:02;18.47;;;15.90;;
60306;SDS011;46155;52.364;6.580;2023-06-22T13:31:29;17.37;;;15.63;;
60306;SDS011;46155;52.364;6.580;2023-06-22T13:33:54;22.47;;;16.73;;
60306;SDS011;46155;52.364;6.580;2023-06-22T13:36:20;20.83;;;17.40;;
60306;SDS011;46155;52.364;6.580;2023-06-22T13:38:46;21.70;;;17.83;;
60306;SDS011;46155;52.364;6.580;2023-06-22T13:41:12;22.03;;;18.10;;
60306;SDS011;46155;52.364;6.580;2023-06-22T13:43:37;20.43;;;17.53;;
60306;SDS011;46155;52.364;6.580;2023-06-22T13:46:03;25.73;;;17.30;;
60306;SDS011;46155;52.364;6.580;2023-06-22T13:48:28;21.30;;;18.60;;
60306;SDS011;46155;52.364;6.580;2023-06-22T13:50:53;22.57;;;18.83;;
60306;SDS011;46155;52.364;6.580;2023-06-22T13:53:19;21.73;;;19.33;;
60306;SDS011;46155;52.364;6.580;2023-06-22T13:55:44;20.60;;;18.43;;
60306;SDS011;46155;52.364;6.580;2023-06-22T13:58:10;23.50;;;20.70;;
60306;SDS011;46155;52.364;6.580;2023-06-22T14:00:35;24.03;;;21.33;;
60306;SDS011;46155;52.364;6.580;2023-06-22T14:03:00;26.30;;;20.57;;
60306;SDS011;46155;52.364;6.580;2023-06-22T14:05:26;29.23;;;21.33;;
60306;SDS011;46155;52.364;6.580;2023-06-22T14:07:51;28.00;;;22.33;;
60306;SDS011;46155;52.364;6.580;2023-06-22T14:10:17;25.33;;;22.23;;
60306;SDS011;46155;52.364;6.580;2023-06-22T14:12:42;27.40;;;21.53;;
60306;SDS011;46155;52.364;6.580;2023-06-22T14:15:07;27.13;;;22.83;;
60306;SDS011;46155;52.364;6.580;2023-06-22T14:17:33;29.17;;;24.67;;
60306;SDS011;46155;52.364;6.580;2023-06-22T14:19:58;28.57;;;25.20;;
60306;SDS011;46155;52.364;6.580;2023-06-22T14:22:24;29.00;;;25.23;;
60306;SDS011;46155;52.364;6.580;2023-06-22T14:24:49;28.63;;;24.93;;
60306;SDS011;46155;52.364;6.580;2023-06-22T14:27:15;34.67;;;25.37;;
60306;SDS011;46155;52.364;6.580;2023-06-22T14:29:40;27.20;;;24.13;;
60306;SDS011;46155;52.364;6.580;2023-06-22T14:32:06;26.63;;;23.80;;
60306;SDS011;46155;52.364;6.580;2023-06-22T14:34:32;31.87;;;26.17;;
60306;SDS011;46155;52.364;6.580;2023-06-22T14:37:00;29.50;;;25.33;;
60306;SDS011;46155;52.364;6.580;2023-06-22T14:39:26;27.10;;;24.33;;
60306;SDS011;46155;52.364;6.580;2023-06-22T14:41:51;28.60;;;25.20;;
60306;SDS011;46155;52.364;6.580;2023-06-22T14:44:17;27.00;;;24.13;;
60306;SDS011;46155;52.364;6.580;2023-06-22T14:46:42;26.20;;;23.47;;
60306;SDS011;46155;52.364;6.580;2023-06-22T14:49:07;27.67;;;24.23;;
60306;SDS011;46155;52.364;6.580;2023-06-22T14:51:32;28.83;;;23.73;;
60306;SDS011;46155;52.364;6.580;2023-06-22T14:53:58;26.87;;;24.00;;
60306;SDS011;46155;52.364;6.580;2023-06-22T14:56:23;27.63;;;24.13;;
60306;SDS011;46155;52.364;6.580;2023-06-22T14:58:48;27.07;;;24.17;;
60306;SDS011;46155;52.364;6.580;2023-06-22T15:01:15;27.33;;;24.60;;
60306;SDS011;46155;52.364;6.580;2023-06-22T15:03:41;29.43;;;23.73;;
60306;SDS011;46155;52.364;6.580;2023-06-22T15:06:07;26.57;;;23.87;;
60306;SDS011;46155;52.364;6.580;2023-06-22T15:08:33;28.60;;;24.40;;
60306;SDS011;46155;52.364;6.580;2023-06-22T15:10:59;26.00;;;23.20;;
60306;SDS011;46155;52.364;6.580;2023-06-22T15:13:26;26.40;;;23.57;;
60306;SDS011;46155;52.364;6.580;2023-06-22T15:15:53;31.10;;;24.37;;
60306;SDS011;46155;52.364;6.580;2023-06-22T15:18:18;26.47;;;23.70;;
60306;SDS011;46155;52.364;6.580;2023-06-22T15:20:43;27.53;;;24.47;;
60306;SDS011;46155;52.364;6.580;2023-06-22T15:23:10;25.93;;;23.07;;
60306;SDS011;46155;52.364;6.580;2023-06-22T15:25:36;27.77;;;23.27;;
60306;SDS011;46155;52.364;6.580;2023-06-22T15:28:02;26.77;;;23.97;;
60306;SDS011;46155;52.364;6.580;2023-06-22T15:30:27;27.00;;;23.40;;
60306;SDS011;46155;52.364;6.580;2023-06-22T15:32:53;29.87;;;24.20;;
60306;SDS011;46155;52.364;6.580;2023-06-22T15:35:18;24.07;;;21.57;;
60306;SDS011;46155;52.364;6.580;2023-06-22T15:37:44;27.90;;;24.27;;
60306;SDS011;46155;52.364;6.580;2023-06-22T15:40:10;28.13;;;24.37;;
60306;SDS011;46155;52.364;6.580;2023-06-22T15:42:36;24.90;;;22.20;;
60306;SDS011;46155;52.364;6.580;2023-06-22T15:45:01;26.50;;;23.60;;
60306;SDS011;46155;52.364;6.580;2023-06-22T15:47:27;25.33;;;22.27;;
60306;SDS011;46155;52.364;6.580;2023-06-22T15:49:52;27.20;;;22.30;;
60306;SDS011;46155;52.364;6.580;2023-06-22T15:52:18;23.17;;;20.77;;
60306;SDS011;46155;52.364;6.580;2023-06-22T15:54:44;23.53;;;21.00;;
60306;SDS011;46155;52.364;6.580;2023-06-22T15:57:10;24.83;;;22.23;;
60306;SDS011;46155;52.364;6.580;2023-06-22T15:59:39;26.40;;;22.40;;
60306;SDS011;46155;52.364;6.580;2023-06-22T16:02:06;24.17;;;21.67;;
60306;SDS011;46155;52.364;6.580;2023-06-22T16:04:32;30.20;;;25.40;;
60306;SDS011;46155;52.364;6.580;2023-06-22T16:06:57;27.40;;;24.57;;
60306;SDS011;46155;52.364;6.580;2023-06-22T16:09:23;30.70;;;27.63;;
60306;SDS011;46155;52.364;6.580;2023-06-22T16:11:48;31.97;;;28.77;;
60306;SDS011;46155;52.364;6.580;2023-06-22T16:14:13;32.47;;;29.03;;
60306;SDS011;46155;52.364;6.580;2023-06-22T16:16:39;31.57;;;28.37;;
60306;SDS011;46155;52.364;6.580;2023-06-22T16:19:04;39.03;;;32.33;;
60306;SDS011;46155;52.364;6.580;2023-06-22T16:21:29;31.93;;;28.77;;
60306;SDS011;46155;52.364;6.580;2023-06-22T16:23:55;35.40;;;31.57;;
60306;SDS011;46155;52.364;6.580;2023-06-22T16:26:20;35.00;;;31.67;;
60306;SDS011;46155;52.364;6.580;2023-06-22T16:28:45;32.90;;;28.87;;
60306;SDS011;46155;52.364;6.580;2023-06-22T16:31:11;33.00;;;29.87;;
60306;SDS011;46155;52.364;6.580;2023-06-22T16:33:36;33.73;;;30.23;;
60306;SDS011;46155;52.364;6.580;2023-06-22T16:36:01;32.70;;;29.40;;
60306;SDS011;46155;52.364;6.580;2023-06-22T16:38:27;33.60;;;30.30;;
60306;SDS011;46155;52.364;6.580;2023-06-22T16:40:54;32.60;;;29.20;;
60306;SDS011;46155;52.364;6.580;2023-06-22T16:43:20;31.40;;;28.27;;
60306;SDS011;46155;52.364;6.580;2023-06-22T16:45:46;32.93;;;29.63;;
60306;SDS011;46155;52.364;6.580;2023-06-22T16:48:12;31.07;;;27.83;;
60306;SDS011;46155;52.364;6.580;2023-06-22T16:50:37;33.50;;;30.03;;
60306;SDS011;46155;52.364;6.580;2023-06-22T16:53:02;35.03;;;31.20;;
60306;SDS011;46155;52.364;6.580;2023-06-22T16:55:28;34.10;;;30.80;;
60306;SDS011;46155;52.364;6.580;2023-06-22T16:57:55;36.97;;;33.47;;
60306;SDS011;46155;52.364;6.580;2023-06-22T17:00:22;34.30;;;30.87;;
60306;SDS011;46155;52.364;6.580;2023-06-22T17:02:48;34.27;;;30.60;;
60306;SDS011;46155;52.364;6.580;2023-06-22T17:05:15;36.03;;;32.13;;
60306;SDS011;46155;52.364;6.580;2023-06-22T17:07:47;35.77;;;31.93;;
60306;SDS011;46155;52.364;6.580;2023-06-22T17:10:22;34.57;;;30.97;;
60306;SDS011;46155;52.364;6.580;2023-06-22T17:12:48;35.50;;;32.13;;